Time;durP1;ratioP1;P1;durP2;ratioP2;P2;SDS_P1;SDS_P2;PMS_P1;PMS_P2;Temp;Humidity;BMP_temperature;BMP_pressure;BME280_temperature;BME280_humidity;BME280_pressure;Samples;Min_cycle;Max_cycle;Signal;HPM_P1;HPM_P2
2022/01/07 00:02:06;;;;;;;11.57;3.40;;;;;;;;;;5079368;28;20387;-90
2022/01/07 00:04:34;;;;;;;8.33;3.40;;;;;;;;;;5073343;28;20542;-90
2022/01/07 00:07:00;;;;;;;13.03;3.70;;;;;;;;;;5074680;28;20067;-90
2022/01/07 00:09:25;;;;;;;8.07;2.53;;;;;;;;;;5088561;28;20047;-90
2022/01/07 00:11:50;;;;;;;13.07;3.77;;;;;;;;;;5058141;28;20021;-90
2022/01/07 00:14:16;;;;;;;12.10;3.50;;;;;;;;;;5092609;28;20031;-90
2022/01/07 00:16:41;;;;;;;13.50;3.47;;;;;;;;;;5065590;28;20062;-90
2022/01/07 00:19:06;;;;;;;8.80;3.40;;;;;;;;;;5063182;28;20384;-89
2022/01/07 00:21:31;;;;;;;9.90;3.20;;;;;;;;;;5073415;28;20021;-90
2022/01/07 00:23:57;;;;;;;11.03;3.17;;;;;;;;;;5072533;28;20013;-90
2022/01/07 00:26:22;;;;;;;14.50;3.57;;;;;;;;;;5084958;28;20391;-90
2022/01/07 00:28:47;;;;;;;8.90;2.20;;;;;;;;;;5096588;28;20020;-90
2022/01/07 00:31:12;;;;;;;9.87;3.13;;;;;;;;;;5096403;28;20035;-90
2022/01/07 00:33:37;;;;;;;9.57;3.33;;;;;;;;;;5097661;28;20521;-90
2022/01/07 00:36:03;;;;;;;14.13;3.10;;;;;;;;;;5096067;28;20122;-90
2022/01/07 00:38:30;;;;;;;13.77;2.83;;;;;;;;;;5096608;28;20039;-90
2022/01/07 00:40:55;;;;;;;15.73;3.27;;;;;;;;;;5096436;28;20023;-89
2022/01/07 00:43:20;;;;;;;10.07;3.20;;;;;;;;;;5096431;28;20024;-90
2022/01/07 00:45:45;;;;;;;15.00;2.97;;;;;;;;;;5092440;28;20041;-90
2022/01/07 00:48:11;;;;;;;8.10;2.67;;;;;;;;;;5075973;28;20028;-90
2022/01/07 00:50:36;;;;;;;13.33;3.33;;;;;;;;;;5075764;28;20119;-89
2022/01/07 00:53:01;;;;;;;9.80;2.73;;;;;;;;;;5076019;28;20388;-90
2022/01/07 00:55:27;;;;;;;10.93;2.40;;;;;;;;;;5075807;28;20024;-89
2022/01/07 00:57:52;;;;;;;10.90;2.73;;;;;;;;;;5075623;28;20025;-90
2022/01/07 01:00:19;;;;;;;8.53;2.67;;;;;;;;;;5076815;28;20100;-90
2022/01/07 01:02:44;;;;;;;12.37;2.27;;;;;;;;;;5075703;28;20021;-90
2022/01/07 01:05:11;;;;;;;10.73;2.73;;;;;;;;;;5075570;28;20086;-89
2022/01/07 01:07:36;;;;;;;9.97;2.70;;;;;;;;;;5075034;28;20457;-89
2022/01/07 01:10:05;;;;;;;9.23;2.40;;;;;;;;;;5075519;28;20025;-89
2022/01/07 01:12:31;;;;;;;3.73;1.63;;;;;;;;;;5075643;28;20016;-89
2022/01/07 01:14:56;;;;;;;11.20;2.67;;;;;;;;;;5075240;28;20029;-89
2022/01/07 01:17:21;;;;;;;11.07;2.60;;;;;;;;;;5075126;28;20016;-89
2022/01/07 01:19:46;;;;;;;7.53;2.17;;;;;;;;;;5075218;28;20040;-89
2022/01/07 01:22:12;;;;;;;8.63;2.23;;;;;;;;;;5075296;28;20058;-89
2022/01/07 01:24:37;;;;;;;14.87;2.60;;;;;;;;;;5075048;28;20158;-89
2022/01/07 01:27:02;;;;;;;7.60;2.20;;;;;;;;;;5076071;28;20040;-89
2022/01/07 01:29:28;;;;;;;6.10;1.50;;;;;;;;;;5074993;28;20434;-89
2022/01/07 01:31:53;;;;;;;10.50;2.73;;;;;;;;;;5075018;28;20070;-89
2022/01/07 01:34:18;;;;;;;8.13;2.37;;;;;;;;;;5069203;28;20096;-89
2022/01/07 01:36:43;;;;;;;6.23;1.80;;;;;;;;;;5074916;28;20029;-90
2022/01/07 01:39:12;;;;;;;8.17;2.37;;;;;;;;;;5076399;28;20520;-90
2022/01/07 01:41:37;;;;;;;11.87;3.00;;;;;;;;;;5074780;28;20044;-90
2022/01/07 01:44:02;;;;;;;14.53;2.67;;;;;;;;;;5074743;28;20052;-89
2022/01/07 01:46:27;;;;;;;7.30;1.90;;;;;;;;;;5074553;28;20583;-90
2022/01/07 01:48:53;;;;;;;8.27;3.00;;;;;;;;;;5075079;28;20021;-90
2022/01/07 01:51:18;;;;;;;7.40;2.57;;;;;;;;;;5074834;28;20025;-90
2022/01/07 01:53:43;;;;;;;13.10;3.07;;;;;;;;;;5074591;28;20358;-89
2022/01/07 01:56:09;;;;;;;11.97;2.33;;;;;;;;;;5074562;28;20070;-89
2022/01/07 01:58:34;;;;;;;12.73;2.50;;;;;;;;;;5074850;28;20012;-89
2022/01/07 02:01:00;;;;;;;14.17;2.70;;;;;;;;;;5074582;28;20074;-89
2022/01/07 02:03:25;;;;;;;8.23;2.47;;;;;;;;;;5071975;28;20029;-90
2022/01/07 02:05:50;;;;;;;12.93;3.63;;;;;;;;;;5074670;28;20032;-89
2022/01/07 02:08:16;;;;;;;10.37;3.00;;;;;;;;;;5074714;28;20103;-89
2022/01/07 02:10:41;;;;;;;10.13;2.50;;;;;;;;;;5074465;28;20021;-90
2022/01/07 02:13:06;;;;;;;9.87;2.93;;;;;;;;;;5075594;28;20016;-89
2022/01/07 02:15:32;;;;;;;11.07;3.00;;;;;;;;;;5074348;28;20464;-89
2022/01/07 02:17:57;;;;;;;10.97;2.73;;;;;;;;;;5074286;28;20466;-89
2022/01/07 02:20:25;;;;;;;13.80;3.40;;;;;;;;;;5074007;28;20383;-89
2022/01/07 02:22:51;;;;;;;10.83;2.70;;;;;;;;;;5073688;28;20371;-89
2022/01/07 02:25:16;;;;;;;14.37;3.30;;;;;;;;;;5074187;28;20115;-90
2022/01/07 02:27:42;;;;;;;8.27;2.90;;;;;;;;;;5073888;28;20537;-89
2022/01/07 02:30:08;;;;;;;11.93;2.73;;;;;;;;;;5075084;28;20016;-89
2022/01/07 02:32:33;;;;;;;9.50;3.27;;;;;;;;;;5074008;28;20020;-89
2022/01/07 02:34:59;;;;;;;11.23;2.93;;;;;;;;;;5073956;28;20491;-89
2022/01/07 02:37:24;;;;;;;12.77;2.77;;;;;;;;;;5074892;28;20016;-90
2022/01/07 02:39:49;;;;;;;15.40;3.17;;;;;;;;;;5073902;28;20024;-89
2022/01/07 02:42:15;;;;;;;11.97;2.57;;;;;;;;;;5074196;28;20044;-89
2022/01/07 02:44:40;;;;;;;8.50;3.30;;;;;;;;;;5073814;28;20204;-90
2022/01/07 02:47:05;;;;;;;11.10;2.70;;;;;;;;;;5070714;28;20405;-89
2022/01/07 02:49:31;;;;;;;8.67;3.10;;;;;;;;;;5052827;28;20469;-90
2022/01/07 02:51:56;;;;;;;13.83;3.47;;;;;;;;;;5053881;28;20019;-90
2022/01/07 02:54:21;;;;;;;14.10;3.67;;;;;;;;;;5052636;28;20021;-90
2022/01/07 02:56:46;;;;;;;15.70;3.03;;;;;;;;;;5051763;28;20017;-90
2022/01/07 02:59:12;;;;;;;12.83;3.60;;;;;;;;;;5055074;28;20024;-90
2022/01/07 03:01:38;;;;;;;14.43;3.77;;;;;;;;;;5053506;28;20029;-90
2022/01/07 03:04:04;;;;;;;12.43;3.37;;;;;;;;;;5053287;28;20021;-90
2022/01/07 03:06:29;;;;;;;13.20;3.47;;;;;;;;;;5053255;28;20029;-89
2022/01/07 03:08:55;;;;;;;10.73;3.27;;;;;;;;;;5053374;28;20112;-90
2022/01/07 03:11:22;;;;;;;6.77;3.10;;;;;;;;;;5053193;28;20029;-90
2022/01/07 03:13:47;;;;;;;11.37;3.33;;;;;;;;;;5053190;28;20149;-90
2022/01/07 03:16:12;;;;;;;11.10;3.30;;;;;;;;;;5054407;28;20526;-89
2022/01/07 03:18:38;;;;;;;13.73;3.30;;;;;;;;;;5073905;28;20541;-90
2022/01/07 03:21:03;;;;;;;7.30;2.83;;;;;;;;;;5073221;28;20025;-90
2022/01/07 03:23:29;;;;;;;10.87;3.50;;;;;;;;;;5073046;28;20026;-89
2022/01/07 03:25:54;;;;;;;11.43;4.00;;;;;;;;;;5072880;28;20028;-89
2022/01/07 03:28:19;;;;;;;12.90;4.07;;;;;;;;;;5074249;28;20583;-89
2022/01/07 03:30:45;;;;;;;11.57;3.40;;;;;;;;;;5072926;28;20048;-89
2022/01/07 03:33:10;;;;;;;11.60;3.33;;;;;;;;;;5073921;28;20019;-89
2022/01/07 03:35:35;;;;;;;6.90;3.00;;;;;;;;;;5072838;28;20013;-89
2022/01/07 03:38:01;;;;;;;9.03;3.07;;;;;;;;;;5072974;28;20020;-89
2022/01/07 03:40:26;;;;;;;10.43;3.43;;;;;;;;;;5073003;28;20033;-89
2022/01/07 03:42:52;;;;;;;8.90;3.53;;;;;;;;;;5072689;28;20032;-90
2022/01/07 03:45:18;;;;;;;10.33;2.87;;;;;;;;;;5072761;28;20028;-90
2022/01/07 03:47:43;;;;;;;11.87;3.13;;;;;;;;;;5072455;28;20036;-90
2022/01/07 03:50:10;;;;;;;6.97;3.53;;;;;;;;;;5072677;28;20032;-89
2022/01/07 03:52:36;;;;;;;8.87;3.17;;;;;;;;;;5073144;28;20103;-90
2022/01/07 03:55:02;;;;;;;9.57;3.70;;;;;;;;;;5072692;28;20499;-90
2022/01/07 03:57:28;;;;;;;6.63;3.30;;;;;;;;;;5072051;28;20472;-90
2022/01/07 03:59:53;;;;;;;8.93;3.00;;;;;;;;;;5071783;28;20074;-90
2022/01/07 04:02:18;;;;;;;8.10;3.00;;;;;;;;;;5072514;28;20020;-90
2022/01/07 04:04:44;;;;;;;7.53;3.20;;;;;;;;;;5072606;28;20411;-89
2022/01/07 04:07:09;;;;;;;7.83;3.80;;;;;;;;;;5074146;28;20025;-90
2022/01/07 04:09:35;;;;;;;8.50;3.07;;;;;;;;;;5072479;28;20025;-89
2022/01/07 04:12:00;;;;;;;10.63;3.57;;;;;;;;;;5073545;28;20017;-89
2022/01/07 04:14:26;;;;;;;7.73;3.30;;;;;;;;;;5072173;28;20013;-89
2022/01/07 04:16:52;;;;;;;6.73;3.30;;;;;;;;;;5072331;28;20025;-90
2022/01/07 04:19:17;;;;;;;10.50;3.43;;;;;;;;;;5072389;28;20437;-90
2022/01/07 04:21:42;;;;;;;9.97;3.67;;;;;;;;;;5072386;28;20016;-90
2022/01/07 04:24:10;;;;;;;8.90;3.43;;;;;;;;;;5072675;28;20016;-89
2022/01/07 04:26:36;;;;;;;5.83;3.10;;;;;;;;;;5072150;28;20034;-90
2022/01/07 04:29:01;;;;;;;8.53;3.20;;;;;;;;;;5073330;28;20096;-90
2022/01/07 04:31:27;;;;;;;8.67;3.23;;;;;;;;;;5072216;28;20078;-90
2022/01/07 04:33:52;;;;;;;7.93;3.57;;;;;;;;;;5073384;28;20027;-90
2022/01/07 04:36:17;;;;;;;9.57;3.70;;;;;;;;;;5072051;28;20017;-89
2022/01/07 04:38:43;;;;;;;6.33;3.53;;;;;;;;;;5072297;28;20476;-89
2022/01/07 04:41:08;;;;;;;6.57;3.30;;;;;;;;;;5072134;28;20040;-90
2022/01/07 04:43:33;;;;;;;5.80;3.47;;;;;;;;;;5072261;28;20472;-90
2022/01/07 04:45:58;;;;;;;7.73;3.60;;;;;;;;;;5071988;28;20106;-89
2022/01/07 04:48:23;;;;;;;8.67;3.70;;;;;;;;;;5071946;28;20024;-90
2022/01/07 04:50:49;;;;;;;8.03;3.40;;;;;;;;;;5071971;28;20020;-90
2022/01/07 04:53:14;;;;;;;7.80;3.73;;;;;;;;;;5072068;28;20031;-90
2022/01/07 04:55:39;;;;;;;6.83;3.63;;;;;;;;;;5072124;28;20021;-90
2022/01/07 04:58:14;;;;;;;7.73;3.20;;;;;;;;;;5071524;28;20038;-90
2022/01/07 05:00:40;;;;;;;7.73;3.30;;;;;;;;;;5071922;28;20033;-90
2022/01/07 05:03:06;;;;;;;9.37;3.33;;;;;;;;;;5071927;28;20190;-90
2022/01/07 05:05:32;;;;;;;8.00;3.70;;;;;;;;;;5072082;28;20459;-90
2022/01/07 05:07:57;;;;;;;7.23;3.97;;;;;;;;;;5073090;28;20052;-90
2022/01/07 05:10:23;;;;;;;9.40;3.77;;;;;;;;;;5071913;28;20090;-90
2022/01/07 05:12:48;;;;;;;7.60;4.33;;;;;;;;;;5075695;28;20406;-89
2022/01/07 05:15:14;;;;;;;7.60;3.67;;;;;;;;;;5075553;28;20016;-90
2022/01/07 05:17:40;;;;;;;7.60;3.97;;;;;;;;;;5075639;28;20044;-90
2022/01/07 05:20:06;;;;;;;9.30;4.30;;;;;;;;;;5075634;28;20203;-90
2022/01/07 05:22:31;;;;;;;8.80;4.20;;;;;;;;;;5075018;28;20024;-90
2022/01/07 05:24:56;;;;;;;8.30;4.30;;;;;;;;;;5075361;28;20383;-91
2022/01/07 05:27:22;;;;;;;7.27;4.00;;;;;;;;;;5076284;28;20040;-90
2022/01/07 05:29:47;;;;;;;8.90;4.80;;;;;;;;;;5075235;28;20115;-89
2022/01/07 05:32:12;;;;;;;10.87;4.30;;;;;;;;;;5075256;28;20052;-90
2022/01/07 05:34:37;;;;;;;9.20;4.43;;;;;;;;;;5075350;28;20020;-90
2022/01/07 05:37:03;;;;;;;7.93;4.50;;;;;;;;;;5075151;28;20017;-90
2022/01/07 05:39:28;;;;;;;10.37;4.27;;;;;;;;;;5075107;28;20526;-90
2022/01/07 05:41:53;;;;;;;9.20;4.63;;;;;;;;;;5075056;28;20028;-90
2022/01/07 05:44:19;;;;;;;14.43;5.33;;;;;;;;;;5075023;28;20436;-90
2022/01/07 05:46:44;;;;;;;10.33;4.77;;;;;;;;;;5074764;28;20532;-90
2022/01/07 05:49:09;;;;;;;14.83;5.20;;;;;;;;;;5075044;28;20480;-90
2022/01/07 05:51:35;;;;;;;12.60;4.97;;;;;;;;;;5074955;28;20021;-89
2022/01/07 05:54:00;;;;;;;12.37;5.30;;;;;;;;;;5074930;28;20107;-90
2022/01/07 05:56:26;;;;;;;12.50;5.37;;;;;;;;;;5075061;28;20043;-90
2022/01/07 05:58:51;;;;;;;11.67;5.07;;;;;;;;;;5074650;28;20025;-90
2022/01/07 06:01:16;;;;;;;11.57;5.03;;;;;;;;;;5074810;28;20487;-90
2022/01/07 06:03:41;;;;;;;12.47;5.30;;;;;;;;;;5074694;28;20024;-89
2022/01/07 06:06:07;;;;;;;14.00;6.37;;;;;;;;;;5074602;28;20021;-89
2022/01/07 06:08:33;;;;;;;17.23;5.33;;;;;;;;;;5074527;28;20024;-90
2022/01/07 06:10:58;;;;;;;12.40;5.93;;;;;;;;;;5074401;28;20031;-89
2022/01/07 06:13:23;;;;;;;12.53;6.07;;;;;;;;;;5074575;28;20051;-90
2022/01/07 06:15:49;;;;;;;13.47;5.57;;;;;;;;;;5074373;28;20063;-89
2022/01/07 06:18:14;;;;;;;13.07;5.17;;;;;;;;;;5074565;28;20012;-89
2022/01/07 06:20:39;;;;;;;11.77;5.40;;;;;;;;;;5074279;28;20016;-90
2022/01/07 06:23:05;;;;;;;12.90;5.30;;;;;;;;;;5074262;28;20048;-90
2022/01/07 06:25:30;;;;;;;20.43;8.93;;;;;;;;;;5073995;28;20031;-89
2022/01/07 06:27:55;;;;;;;12.93;6.63;;;;;;;;;;5073774;28;20032;-89
2022/01/07 06:30:20;;;;;;;12.57;6.30;;;;;;;;;;5073763;28;20058;-89
2022/01/07 06:32:45;;;;;;;12.77;5.43;;;;;;;;;;5073819;28;20021;-89
2022/01/07 06:35:11;;;;;;;12.53;5.60;;;;;;;;;;5074138;28;20483;-90
2022/01/07 06:37:36;;;;;;;13.03;5.90;;;;;;;;;;5074018;28;20103;-90
2022/01/07 06:40:04;;;;;;;11.83;5.60;;;;;;;;;;5073858;28;20509;-90
2022/01/07 06:42:29;;;;;;;11.00;6.00;;;;;;;;;;5073941;28;20487;-90
2022/01/07 06:44:54;;;;;;;11.10;5.90;;;;;;;;;;5073404;28;20036;-90
2022/01/07 06:47:19;;;;;;;11.73;5.90;;;;;;;;;;5074742;28;20020;-90
2022/01/07 06:49:45;;;;;;;14.83;6.33;;;;;;;;;;5073670;28;20086;-90
2022/01/07 06:52:10;;;;;;;13.33;5.33;;;;;;;;;;5073715;28;20468;-90
2022/01/07 06:54:35;;;;;;;12.27;5.10;;;;;;;;;;5073576;28;20484;-90
2022/01/07 06:57:00;;;;;;;11.33;5.20;;;;;;;;;;5074792;28;20115;-90
2022/01/07 06:59:26;;;;;;;14.33;5.93;;;;;;;;;;5073412;28;20025;-90
2022/01/07 07:01:51;;;;;;;12.57;4.93;;;;;;;;;;5073505;28;20020;-89
2022/01/07 07:04:16;;;;;;;12.40;6.13;;;;;;;;;;5073330;28;20055;-89
2022/01/07 07:06:42;;;;;;;13.10;5.93;;;;;;;;;;5073350;28;20021;-90
2022/01/07 07:09:07;;;;;;;13.30;5.50;;;;;;;;;;5072679;28;20387;-90
2022/01/07 07:11:32;;;;;;;10.33;5.20;;;;;;;;;;5073066;28;20024;-90
2022/01/07 07:13:57;;;;;;;16.33;7.03;;;;;;;;;;5073296;28;20103;-90
2022/01/07 07:16:23;;;;;;;12.20;6.03;;;;;;;;;;5073087;28;20020;-89
2022/01/07 07:18:48;;;;;;;16.93;6.40;;;;;;;;;;5073009;28;20056;-89
2022/01/07 07:21:14;;;;;;;12.10;6.03;;;;;;;;;;5072902;28;20078;-89
2022/01/07 07:23:39;;;;;;;12.33;5.37;;;;;;;;;;5072845;28;20012;-89
2022/01/07 07:26:04;;;;;;;10.67;5.00;;;;;;;;;;5072916;28;20028;-90
2022/01/07 07:28:30;;;;;;;10.40;5.20;;;;;;;;;;5072777;28;20032;-89
2022/01/07 07:30:59;;;;;;;10.37;5.13;;;;;;;;;;5072855;28;20403;-89
2022/01/07 07:38:34;;;;;;;12.17;5.50;;;;;;;;;;5090474;28;20026;-89
2022/01/07 07:40:59;;;;;;;11.27;5.27;;;;;;;;;;5054811;28;20104;-89
2022/01/07 07:43:24;;;;;;;10.47;5.30;;;;;;;;;;5083766;28;20047;-89
2022/01/07 07:45:49;;;;;;;13.57;5.43;;;;;;;;;;5072508;28;20115;-89
2022/01/07 07:48:15;;;;;;;13.60;6.10;;;;;;;;;;5072506;28;20425;-88
2022/01/07 07:50:40;;;;;;;15.43;5.83;;;;;;;;;;5053490;28;20021;-89
2022/01/07 07:53:05;;;;;;;12.67;6.00;;;;;;;;;;5052217;28;20025;-89
2022/01/07 07:55:30;;;;;;;12.43;6.00;;;;;;;;;;5063248;28;20028;-89
2022/01/07 07:57:56;;;;;;;12.77;5.73;;;;;;;;;;5073888;28;20361;-89
2022/01/07 08:00:21;;;;;;;11.57;5.90;;;;;;;;;;5076831;28;20095;-89
2022/01/07 08:02:46;;;;;;;11.63;4.90;;;;;;;;;;5072200;28;20103;-89
2022/01/07 08:05:11;;;;;;;12.47;5.57;;;;;;;;;;5076319;28;20020;-89
2022/01/07 08:07:36;;;;;;;9.87;5.33;;;;;;;;;;5069763;28;20083;-89
2022/01/07 08:10:02;;;;;;;9.80;5.17;;;;;;;;;;5070909;28;20059;-90
2022/01/07 08:12:50;;;;;;;9.73;4.80;;;;;;;;;;5065794;28;20061;-90
2022/01/07 08:17:57;;;;;;;10.50;5.03;;;;;;;;;;5073845;28;20049;-89
2022/01/07 08:20:22;;;;;;;8.17;4.47;;;;;;;;;;5092542;28;20024;-90
2022/01/07 08:22:47;;;;;;;9.33;4.60;;;;;;;;;;5093810;28;20016;-90
2022/01/07 08:25:12;;;;;;;12.90;4.77;;;;;;;;;;5093777;28;20364;-89
2022/01/07 08:27:38;;;;;;;8.00;4.10;;;;;;;;;;5092851;28;20024;-90
2022/01/07 08:30:12;;;;;;;8.97;4.20;;;;;;;;;;5082995;28;20016;-90
2022/01/07 08:35:21;;;;;;;8.80;4.53;;;;;;;;;;5094025;28;20411;-89
2022/01/07 08:37:46;;;;;;;11.90;3.90;;;;;;;;;;5088133;28;20028;-89
2022/01/07 08:40:12;;;;;;;8.30;4.20;;;;;;;;;;5072569;28;20024;-91
2022/01/07 08:42:37;;;;;;;11.50;4.47;;;;;;;;;;5072915;28;20032;-93
2022/01/07 08:45:02;;;;;;;8.23;4.50;;;;;;;;;;5072779;28;20063;-93
2022/01/07 08:47:27;;;;;;;9.43;4.70;;;;;;;;;;5074912;28;20016;-92
2022/01/07 08:49:53;;;;;;;8.83;4.63;;;;;;;;;;5059149;28;20123;-91
2022/01/07 08:52:20;;;;;;;8.77;4.60;;;;;;;;;;5090145;28;20465;-92
2022/01/07 08:54:45;;;;;;;8.57;4.67;;;;;;;;;;5089926;28;20104;-92
2022/01/07 08:57:10;;;;;;;10.10;4.37;;;;;;;;;;5089769;28;20079;-93
2022/01/07 08:59:36;;;;;;;9.33;4.30;;;;;;;;;;5093878;28;20025;-91
2022/01/07 09:02:01;;;;;;;12.50;5.27;;;;;;;;;;5060217;28;20050;-93
2022/01/07 09:04:26;;;;;;;15.10;5.10;;;;;;;;;;5088519;28;20012;-94
2022/01/07 09:06:51;;;;;;;9.33;4.73;;;;;;;;;;5095875;28;20086;-94
2022/01/07 09:09:16;;;;;;;9.33;4.90;;;;;;;;;;5076626;28;20016;-93
2022/01/07 09:11:42;;;;;;;11.97;4.73;;;;;;;;;;5076406;28;20043;-94
2022/01/07 09:14:07;;;;;;;10.97;4.30;;;;;;;;;;5076224;28;20032;-93
2022/01/07 09:16:32;;;;;;;9.13;4.10;;;;;;;;;;5083931;28;20024;-93
2022/01/07 09:19:00;;;;;;;9.77;4.80;;;;;;;;;;5082689;28;20077;-93
2022/01/07 09:21:25;;;;;;;13.90;4.77;;;;;;;;;;5076159;28;20047;-93
2022/01/07 09:23:50;;;;;;;11.53;4.40;;;;;;;;;;5076098;28;20028;-93
2022/01/07 09:26:15;;;;;;;11.87;4.40;;;;;;;;;;5082030;28;20032;-93
2022/01/07 09:28:41;;;;;;;10.10;4.33;;;;;;;;;;5085681;28;20472;-93
2022/01/07 09:31:06;;;;;;;9.33;3.40;;;;;;;;;;5075379;28;20113;-92
2022/01/07 09:33:31;;;;;;;13.23;4.17;;;;;;;;;;5075661;28;20586;-92
2022/01/07 09:35:56;;;;;;;12.47;4.07;;;;;;;;;;5075509;28;20020;-93
2022/01/07 09:38:22;;;;;;;8.03;3.77;;;;;;;;;;5075407;28;20028;-90
2022/01/07 09:40:49;;;;;;;13.20;5.03;;;;;;;;;;5075699;28;20020;-93
2022/01/07 09:43:15;;;;;;;14.83;4.13;;;;;;;;;;5075196;28;20017;-93
2022/01/07 09:45:41;;;;;;;10.77;4.23;;;;;;;;;;5075420;28;20050;-92
2022/01/07 09:48:08;;;;;;;8.53;4.07;;;;;;;;;;5075544;28;20028;-91
2022/01/07 09:50:34;;;;;;;11.50;4.60;;;;;;;;;;5075492;28;20119;-94
2022/01/07 09:53:04;;;;;;;9.10;3.80;;;;;;;;;;5075429;28;20090;-92
2022/01/07 09:55:29;;;;;;;8.57;3.67;;;;;;;;;;5074864;28;20048;-91
2022/01/07 09:57:54;;;;;;;11.40;4.10;;;;;;;;;;5074824;28;20047;-93
2022/01/07 10:00:20;;;;;;;12.37;4.60;;;;;;;;;;5074754;28;20024;-91
2022/01/07 10:03:02;;;;;;;10.63;4.57;;;;;;;;;;5074757;28;20446;-91
2022/01/07 10:05:28;;;;;;;9.65;4.07;;;;;;;;;;5074553;28;20029;-91
2022/01/07 10:07:53;;;;;;;10.07;4.10;;;;;;;;;;5074748;28;20039;-91
2022/01/07 10:10:19;;;;;;;10.67;3.83;;;;;;;;;;5074298;28;20021;-91
2022/01/07 10:12:47;;;;;;;11.07;4.17;;;;;;;;;;5074407;28;20028;-91
2022/01/07 10:15:19;;;;;;;13.20;4.37;;;;;;;;;;5074217;28;20095;-91
2022/01/07 10:17:54;;;;;;;11.10;3.50;;;;;;;;;;5074515;28;20571;-91
2022/01/07 10:20:22;;;;;;;12.23;3.83;;;;;;;;;;5074705;28;20434;-90
2022/01/07 10:22:49;;;;;;;14.70;3.60;;;;;;;;;;5074161;28;20029;-91
2022/01/07 10:25:25;;;;;;;12.63;3.77;;;;;;;;;;5074112;28;20025;-91
2022/01/07 10:27:51;;;;;;;13.00;3.80;;;;;;;;;;5074108;28;20697;-91
2022/01/07 10:30:19;;;;;;;11.10;3.93;;;;;;;;;;5073817;28;20020;-91
2022/01/07 10:32:45;;;;;;;14.90;4.50;;;;;;;;;;5074224;28;20012;-91
2022/01/07 10:35:10;;;;;;;12.07;3.63;;;;;;;;;;5064391;28;20445;-90
2022/01/07 10:37:36;;;;;;;14.00;3.87;;;;;;;;;;5055084;28;20045;-90
2022/01/07 10:40:18;;;;;;;9.97;3.43;;;;;;;;;;5068943;28;20024;-91
2022/01/07 10:42:43;;;;;;;10.88;3.60;;;;;;;;;;5079627;28;20069;-91
2022/01/07 10:45:08;;;;;;;16.33;3.73;;;;;;;;;;5094212;28;20020;-91
2022/01/07 10:47:37;;;;;;;15.27;4.50;;;;;;;;;;5093908;28;20020;-91
2022/01/07 10:50:12;;;;;;;10.57;3.67;;;;;;;;;;5093999;28;20206;-91
2022/01/07 10:52:37;;;;;;;9.73;4.17;;;;;;;;;;5076377;28;20016;-91
2022/01/07 10:55:10;;;;;;;14.43;4.10;;;;;;;;;;5073932;28;20028;-92
2022/01/07 10:57:37;;;;;;;11.27;3.90;;;;;;;;;;5073771;28;20012;-91
2022/01/07 11:00:06;;;;;;;16.87;4.33;;;;;;;;;;5073310;28;20028;-90
2022/01/07 11:02:32;;;;;;;12.37;3.53;;;;;;;;;;5073092;28;20031;-91
2022/01/07 11:04:57;;;;;;;10.50;3.73;;;;;;;;;;5073155;28;20020;-90
2022/01/07 11:07:22;;;;;;;11.77;3.50;;;;;;;;;;5086842;28;20069;-90
2022/01/07 11:09:48;;;;;;;11.57;3.37;;;;;;;;;;5082469;28;20024;-91
2022/01/07 11:12:16;;;;;;;14.20;3.50;;;;;;;;;;5074431;28;20005;-91
2022/01/07 11:14:42;;;;;;;13.47;3.97;;;;;;;;;;5072686;28;20116;-91
2022/01/07 11:17:10;;;;;;;17.50;4.00;;;;;;;;;;5073331;28;20448;-91
2022/01/07 11:19:37;;;;;;;17.67;4.07;;;;;;;;;;5073150;28;20040;-91
2022/01/07 11:22:03;;;;;;;9.30;3.30;;;;;;;;;;5073146;28;20082;-91
2022/01/07 11:24:39;;;;;;;14.67;4.50;;;;;;;;;;5072906;28;20021;-91
2022/01/07 11:27:09;;;;;;;14.57;3.60;;;;;;;;;;5072856;28;20074;-89
2022/01/07 11:29:35;;;;;;;15.37;3.97;;;;;;;;;;5072636;28;20029;-89
2022/01/07 11:32:19;;;;;;;13.90;3.60;;;;;;;;;;5074113;28;20016;-89
2022/01/07 11:34:44;;;;;;;13.40;3.23;;;;;;;;;;5062479;28;20116;-90
2022/01/07 11:37:32;;;;;;;16.17;3.77;;;;;;;;;;5063252;28;20052;-90
2022/01/07 11:39:57;;;;;;;15.97;4.23;;;;;;;;;;5073033;28;20020;-91
2022/01/07 11:42:37;;;;;;;16.60;4.00;;;;;;;;;;5072871;28;20027;-91
2022/01/07 11:45:23;;;;;;;13.30;3.60;;;;;;;;;;5072757;28;20111;-89
2022/01/07 11:47:49;;;;;;;8.87;2.50;;;;;;;;;;5074120;28;20095;-89
2022/01/07 11:50:14;;;;;;;13.33;2.70;;;;;;;;;;5071574;28;20392;-90
2022/01/07 11:52:39;;;;;;;6.67;2.17;;;;;;;;;;5070590;28;20023;-90
2022/01/07 11:55:17;;;;;;;5.73;1.90;;;;;;;;;;5072905;28;20425;-90
2022/01/07 11:57:49;;;;;;;8.07;2.10;;;;;;;;;;5073140;28;20466;-89
2022/01/07 12:00:14;;;;;;;;;;;;;;;;;;5074678;28;20078;-89
2022/01/07 12:02:58;;;;;;;4.03;1.48;;;;;;;;;;5072906;28;19904;-87
2022/01/07 12:05:33;;;;;;;5.93;1.63;;;;;;;;;;5072110;28;20031;-87
2022/01/07 12:07:58;;;;;;;4.00;1.10;;;;;;;;;;5072176;28;20029;-86
2022/01/07 12:10:23;;;;;;;6.43;2.13;;;;;;;;;;5072155;28;20486;-87
2022/01/07 12:12:50;;;;;;;4.80;1.40;;;;;;;;;;5072354;28;20453;-88
2022/01/07 12:15:15;;;;;;;8.27;1.20;;;;;;;;;;5071873;28;20484;-89
2022/01/07 12:17:41;;;;;;;9.00;1.90;;;;;;;;;;5052174;28;20040;-88
2022/01/07 12:20:25;;;;;;;6.90;1.27;;;;;;;;;;5058681;28;20023;-88
2022/01/07 12:22:51;;;;;;;8.73;1.60;;;;;;;;;;5075562;28;20029;-91
2022/01/07 12:25:16;;;;;;;6.07;1.27;;;;;;;;;;5076275;28;20016;-89
2022/01/07 12:27:42;;;;;;;4.63;1.93;;;;;;;;;;5077006;28;20028;-90
2022/01/07 12:30:10;;;;;;;4.77;1.40;;;;;;;;;;5076901;28;20016;-90
2022/01/07 12:32:36;;;;;;;7.03;2.00;;;;;;;;;;5078204;28;20456;-90
2022/01/07 12:35:04;;;;;;;4.93;1.50;;;;;;;;;;5080570;28;20102;-90
2022/01/07 12:37:30;;;;;;;5.13;1.43;;;;;;;;;;5087598;28;20029;-92
2022/01/07 12:39:56;;;;;;;9.10;2.73;;;;;;;;;;5076789;28;20024;-89
2022/01/07 12:42:22;;;;;;;6.53;1.50;;;;;;;;;;5076668;28;20078;-88
2022/01/07 12:44:51;;;;;;;8.63;2.03;;;;;;;;;;5076640;28;20460;-90
2022/01/07 12:47:17;;;;;;;3.77;2.03;;;;;;;;;;5093245;28;20036;-89
2022/01/07 12:49:42;;;;;;;6.53;1.97;;;;;;;;;;5076387;28;20024;-90
2022/01/07 12:52:10;;;;;;;4.07;1.80;;;;;;;;;;5085759;28;20045;-88
2022/01/07 12:54:36;;;;;;;8.67;2.10;;;;;;;;;;5087099;28;20426;-88
2022/01/07 12:57:01;;;;;;;7.37;2.10;;;;;;;;;;5067704;28;20021;-88
2022/01/07 12:59:29;;;;;;;7.33;2.20;;;;;;;;;;5063798;28;20017;-86
2022/01/07 13:01:55;;;;;;;5.80;1.97;;;;;;;;;;5076612;28;20060;-87
2022/01/07 13:04:21;;;;;;;6.20;2.57;;;;;;;;;;5075557;28;20464;-87
2022/01/07 13:06:50;;;;;;;5.93;2.40;;;;;;;;;;5075372;28;20027;-87
2022/01/07 13:09:34;;;;;;;9.13;2.27;;;;;;;;;;5095728;28;20020;-87
2022/01/07 13:12:00;;;;;;;7.93;2.40;;;;;;;;;;5095725;28;20548;-87
2022/01/07 13:14:26;;;;;;;10.90;2.47;;;;;;;;;;5094049;28;20024;-87
2022/01/07 13:17:03;;;;;;;6.73;2.50;;;;;;;;;;5075378;28;20020;-87
2022/01/07 13:19:28;;;;;;;5.80;2.00;;;;;;;;;;5075487;28;20074;-88
2022/01/07 13:21:53;;;;;;;7.27;2.33;;;;;;;;;;5075519;28;20021;-87
2022/01/07 13:24:22;;;;;;;8.83;2.47;;;;;;;;;;5075760;28;20086;-91
2022/01/07 13:26:56;;;;;;;8.77;2.27;;;;;;;;;;5074163;28;20024;-94
2022/01/07 13:29:25;;;;;;;6.20;2.43;;;;;;;;;;5057590;28;20021;-93
2022/01/07 13:31:58;;;;;;;4.43;2.00;;;;;;;;;;5056076;28;20025;-94
2022/01/07 13:34:23;;;;;;;12.70;2.30;;;;;;;;;;5056472;28;20017;-92
2022/01/07 13:36:48;;;;;;;4.20;1.80;;;;;;;;;;5057394;28;20020;-91
2022/01/07 13:39:15;;;;;;;9.10;1.77;;;;;;;;;;5058248;28;20021;-91
2022/01/07 13:41:54;;;;;;;6.23;1.57;;;;;;;;;;5075954;28;20388;-91
2022/01/07 13:44:19;;;;;;;7.63;1.10;;;;;;;;;;5075810;28;20028;-93
2022/01/07 13:46:48;;;;;;;3.93;1.17;;;;;;;;;;5077929;28;20021;-95
2022/01/07 13:49:14;;;;;;;6.70;1.17;;;;;;;;;;5076818;28;20144;-92
2022/01/07 13:51:51;;;;;;;6.47;1.37;;;;;;;;;;5080417;28;20078;-96
2022/01/07 13:54:20;;;;;;;3.27;1.23;;;;;;;;;;5087652;28;20087;-95
2022/01/07 13:57:12;;;;;;;6.27;1.37;;;;;;;;;;5080501;28;20020;-96
2022/01/07 13:59:45;;;;;;;7.00;1.53;;;;;;;;;;5083504;28;20028;-96
2022/01/07 14:02:25;;;;;;;3.03;1.20;;;;;;;;;;5081511;28;20017;-96
2022/01/07 14:05:16;;;;;;;8.10;1.40;;;;;;;;;;5077163;28;20044;-96
2022/01/07 14:07:48;;;;;;;6.10;1.73;;;;;;;;;;5061607;28;20120;-96
2022/01/07 14:10:13;;;;;;;;;;;;;;;;;;5055982;28;20033;-93
2022/01/07 14:13:00;;;;;;;8.83;1.33;;;;;;;;;;5069408;28;20248;-94
2022/01/07 14:15:29;;;;;;;5.10;1.10;;;;;;;;;;5070180;28;20532;-95
2022/01/07 14:18:05;;;;;;;3.30;1.03;;;;;;;;;;5073218;28;20024;-92
2022/01/07 14:20:39;;;;;;;7.37;1.20;;;;;;;;;;5056180;28;20021;-91
2022/01/07 14:23:05;;;;;;;8.17;0.93;;;;;;;;;;5063430;28;20107;-90
2022/01/07 14:25:30;;;;;;;5.20;0.90;;;;;;;;;;5061864;28;20111;-90
2022/01/07 14:27:55;;;;;;;6.33;0.93;;;;;;;;;;5070016;28;20107;-92
2022/01/07 14:30:21;;;;;;;6.43;1.07;;;;;;;;;;5069796;28;20124;-91
2022/01/07 14:32:47;;;;;;;7.80;1.20;;;;;;;;;;5070808;28;20102;-91
2022/01/07 14:35:12;;;;;;;2.93;0.60;;;;;;;;;;5089246;28;20036;-94
2022/01/07 14:37:38;;;;;;;6.50;0.77;;;;;;;;;;5068233;28;20024;-91
2022/01/07 14:40:04;;;;;;;3.27;0.60;;;;;;;;;;5074703;28;20372;-91
2022/01/07 14:42:29;;;;;;;5.23;0.70;;;;;;;;;;5070178;28;20021;-91
2022/01/07 14:44:55;;;;;;;4.63;0.80;;;;;;;;;;5064472;28;20024;-91